Terminal Aerodrome Forecast
Issued by NWS Charleston, SC

Home | Current Version | Previous Version | Text Only | Print | Product List | Glossary On
Versions: 1 2 3 4 5 6 7 8 9 10 11 12 13 14 15 16 17 18 19 20 21 22 23 24 25 26 27 28
703
FTUS42 KCHS 282006 AAB
TAFCHS
TAF AMD
KCHS 282006Z 2820/2918 17008KT P6SM TS SCT025CB BKN040
     FM282100 23008KT 6SM SHRA SCT035 BKN045
      TEMPO 2821/2824 TSRA BKN030CB
     FM290100 VRB04KT P6SM VCSH SCT025 BKN070
     FM291300 33004KT P6SM SCT035 BKN060=

USA.gov is the U.S. government's official web portal to all federal, state and local government web resources and services.